Time;durP1;ratioP1;P1;durP2;ratioP2;P2;SDS_P1;SDS_P2;PMS_P1;PMS_P2;Temp;Humidity;BMP_temperature;BMP_pressure;BME280_temperature;BME280_humidity;BME280_pressure;Samples;Min_cycle;Max_cycle;Signal;HPM_P1;HPM_P2
2022/06/26 00:02:22;;;;;;;13.18;9.68;;;21.70;99.90;;;19.53;100.00;100144.91;5052530;28;20037;-84
2022/06/26 00:04:49;;;;;;;11.23;8.55;;;21.70;99.90;;;19.48;100.00;100153.09;5048059;28;20052;-84
2022/06/26 00:07:17;;;;;;;13.15;8.98;;;21.70;99.90;;;19.48;100.00;100150.34;5043998;28;20041;-84
2022/06/26 00:09:46;;;;;;;12.90;8.05;;;21.60;99.90;;;19.41;100.00;100165.41;5050837;28;20051;-84
2022/06/26 00:12:13;;;;;;;10.13;7.90;;;21.60;99.90;;;19.33;100.00;100169.44;5051367;28;20037;-84
2022/06/26 00:14:40;;;;;;;10.63;7.40;;;21.60;99.90;;;19.28;100.00;100147.25;5052677;28;20078;-84
2022/06/26 00:17:08;;;;;;;11.18;7.43;;;21.60;99.90;;;19.20;100.00;100150.44;5051304;28;20508;-84
2022/06/26 00:19:35;;;;;;;9.50;7.18;;;21.60;99.90;;;19.18;100.00;100174.69;5051348;28;20128;-84
2022/06/26 00:22:05;;;;;;;9.32;6.95;;;21.60;99.90;;;19.20;100.00;100189.91;5052121;28;20052;-84
2022/06/26 00:24:34;;;;;;;12.63;7.27;;;21.60;99.90;;;19.16;100.00;100198.94;5052140;28;20125;-84
2022/06/26 00:27:03;;;;;;;12.00;7.68;;;21.50;99.90;;;19.14;100.00;100200.00;5051804;28;20041;-84
2022/06/26 00:29:31;;;;;;;11.45;7.10;;;21.50;99.90;;;19.17;100.00;100192.31;5050063;28;20115;-84
2022/06/26 00:31:58;;;;;;;9.10;7.13;;;21.50;99.90;;;19.16;100.00;100179.63;5049484;28;20072;-84
2022/06/26 00:34:25;;;;;;;11.20;7.15;;;21.50;99.90;;;19.17;100.00;100164.75;5050425;28;20041;-84
2022/06/26 00:36:52;;;;;;;10.43;6.30;;;21.50;99.90;;;19.16;100.00;100149.28;5051756;28;20048;-84
2022/06/26 00:39:19;;;;;;;10.45;5.80;;;21.50;99.90;;;19.19;100.00;100133.06;5051345;28;20055;-84
2022/06/26 00:41:47;;;;;;;10.85;6.53;;;21.40;99.90;;;19.11;100.00;100120.53;5042120;28;20049;-84
2022/06/26 00:44:17;;;;;;;10.10;5.55;;;21.40;99.90;;;19.06;100.00;100114.09;5051255;28;20045;-84
2022/06/26 00:46:46;;;;;;;11.18;5.90;;;21.40;99.90;;;19.00;100.00;100110.41;5040039;22;20054;-86
2022/06/26 00:49:13;;;;;;;7.78;4.78;;;21.40;99.90;;;18.99;100.00;100117.00;4999623;28;20129;-86
2022/06/26 00:51:44;;;;;;;8.70;5.90;;;21.40;99.90;;;18.92;100.00;100127.34;5025900;28;20136;-86
2022/06/26 00:54:12;;;;;;;8.35;6.00;;;21.40;99.90;;;18.87;100.00;100124.53;5026203;28;20100;-86
2022/06/26 00:56:39;;;;;;;8.77;5.82;;;21.40;99.90;;;18.87;100.00;100130.06;5006910;28;20100;-86
2022/06/26 00:59:07;;;;;;;11.27;7.63;;;21.30;99.90;;;18.94;100.00;100136.22;5011400;28;20092;-86
2022/06/26 01:01:35;;;;;;;9.77;7.03;;;21.30;99.90;;;18.95;100.00;100147.00;4992325;28;20141;-86
2022/06/26 01:04:02;;;;;;;10.43;6.50;;;21.30;99.90;;;18.93;100.00;100151.09;5019438;28;20127;-86
2022/06/26 01:06:31;;;;;;;9.30;6.18;;;21.30;99.90;;;18.90;100.00;100143.31;5026404;28;20084;-86
2022/06/26 01:08:58;;;;;;;9.57;6.65;;;21.30;99.90;;;18.88;100.00;100121.50;5026429;28;20037;-86
2022/06/26 01:11:26;;;;;;;9.43;7.28;;;21.30;99.90;;;18.90;100.00;100126.78;5025518;28;20053;-86
2022/06/26 01:13:58;;;;;;;11.07;6.65;;;21.30;99.90;;;18.90;100.00;100129.53;5026463;28;20042;-86
2022/06/26 01:16:25;;;;;;;;;;;21.20;99.90;;;18.89;100.00;100127.88;5011175;28;20053;-86
2022/06/26 01:18:58;;;;;;;9.85;6.97;;;21.20;99.90;;;18.87;100.00;100122.59;5026168;28;19971;-86
2022/06/26 01:21:26;;;;;;;12.65;7.97;;;21.20;99.90;;;18.88;100.00;100137.22;5009941;28;20064;-86
2022/06/26 01:23:55;;;;;;;12.63;8.35;;;21.10;99.90;;;18.82;100.00;100128.03;5010136;28;20042;-86
2022/06/26 01:26:24;;;;;;;;;;;21.20;99.90;;;18.76;100.00;100129.81;5010194;28;20415;-86
2022/06/26 01:28:52;;;;;;;10.38;6.32;;;21.20;99.90;;;18.68;100.00;100149.53;5009592;28;19925;-86
2022/06/26 01:31:21;;;;;;;7.53;5.75;;;21.20;99.90;;;18.61;100.00;100148.00;5026046;28;20057;-86
2022/06/26 01:33:48;;;;;;;11.10;5.35;;;21.20;99.90;;;18.52;100.00;100155.81;5026448;28;20042;-86
2022/06/26 01:36:16;;;;;;;7.70;5.22;;;21.10;99.90;;;18.43;100.00;100169.16;5025781;28;20049;-86
2022/06/26 01:38:45;;;;;;;8.52;5.60;;;21.10;99.90;;;18.39;100.00;100167.13;5025265;28;20050;-86
2022/06/26 01:41:14;;;;;;;8.82;6.40;;;21.10;99.90;;;18.37;100.00;100167.38;5009255;28;20069;-86
2022/06/26 01:43:43;;;;;;;10.13;6.55;;;21.00;99.90;;;18.34;100.00;100163.19;5025798;28;20049;-86
2022/06/26 01:46:12;;;;;;;12.90;6.65;;;21.00;99.90;;;18.28;100.00;100166.13;5025913;28;20108;-86
2022/06/26 01:48:41;;;;;;;12.15;5.88;;;21.00;99.90;;;18.24;100.00;100153.88;5025405;28;20046;-86
2022/06/26 01:51:10;;;;;;;9.23;5.87;;;21.00;99.90;;;18.19;100.00;100167.56;5010141;28;20042;-85
2022/06/26 01:53:39;;;;;;;8.52;6.25;;;20.90;99.90;;;18.11;100.00;100168.78;5009340;28;20053;-86
2022/06/26 01:56:07;;;;;;;8.68;6.30;;;20.90;99.90;;;18.07;100.00;100181.38;5010279;28;20050;-85
2022/06/26 01:58:41;;;;;;;9.45;6.50;;;20.90;99.90;;;18.03;100.00;100185.66;5024122;28;20149;-86
2022/06/26 02:01:10;;;;;;;10.32;6.95;;;20.90;99.90;;;18.02;100.00;100178.50;5025736;28;20084;-86
2022/06/26 02:03:38;;;;;;;9.20;6.90;;;20.80;99.90;;;18.01;100.00;100188.69;5009771;28;20137;-86
2022/06/26 02:06:05;;;;;;;9.98;7.40;;;20.80;99.90;;;18.00;100.00;100202.69;5028214;28;20049;-85
2022/06/26 02:08:33;;;;;;;10.23;7.47;;;20.80;99.90;;;17.98;100.00;100206.50;5008736;28;20129;-86
2022/06/26 02:13:47;;;;;;;11.50;7.57;;;20.80;99.90;;;18.02;100.00;100209.63;5017163;28;20522;-85
2022/06/26 02:16:18;;;;;;;13.82;7.60;;;20.80;99.90;;;18.04;100.00;100206.63;5009044;28;20508;-86
2022/06/26 02:18:48;;;;;;;13.07;8.37;;;20.80;99.90;;;18.02;100.00;100206.03;5025123;28;20076;-86
2022/06/26 02:21:22;;;;;;;12.07;7.78;;;20.70;99.90;;;18.03;100.00;100213.19;5025381;28;20658;-86
2022/06/26 02:23:52;;;;;;;11.30;7.63;;;20.70;99.90;;;18.02;100.00;100217.06;5024038;28;20128;-86
2022/06/26 02:26:21;;;;;;;10.57;6.97;;;20.70;99.90;;;18.00;100.00;100224.72;5005599;28;20513;-86
2022/06/26 02:28:53;;;;;;;11.38;7.55;;;20.70;99.90;;;18.00;100.00;100224.72;4998097;28;20041;-86
2022/06/26 02:31:21;;;;;;;11.48;7.03;;;20.70;99.90;;;17.96;100.00;100225.19;5010245;28;20705;-87
2022/06/26 02:33:49;;;;;;;11.23;7.68;;;20.60;99.90;;;17.96;100.00;100225.19;5007989;28;20431;-86
2022/06/26 02:36:17;;;;;;;10.50;7.20;;;20.70;99.90;;;17.94;100.00;100215.50;5000688;28;20531;-86
2022/06/26 02:38:44;;;;;;;8.60;6.88;;;20.60;99.90;;;17.95;100.00;100208.91;5008192;28;20061;-86
2022/06/26 02:41:11;;;;;;;9.57;6.70;;;20.60;99.90;;;17.91;100.00;100211.28;5010109;28;20077;-86
2022/06/26 02:43:39;;;;;;;9.95;6.60;;;20.70;99.90;;;17.87;100.00;100214.78;5008391;28;20042;-86
2022/06/26 02:46:10;;;;;;;11.32;6.63;;;20.70;99.90;;;17.83;100.00;100219.91;5022629;28;20046;-86
2022/06/26 02:48:37;;;;;;;11.90;6.82;;;20.60;99.90;;;17.82;100.00;100209.13;5007862;28;20057;-86
2022/06/26 02:51:06;;;;;;;9.57;6.90;;;20.60;99.90;;;17.79;100.00;100207.69;5020015;28;20072;-86
2022/06/26 02:53:34;;;;;;;11.40;7.35;;;20.50;99.90;;;17.77;100.00;100215.34;5024620;28;20046;-86
2022/06/26 02:56:01;;;;;;;11.13;7.50;;;20.50;99.90;;;17.76;100.00;100221.94;5024991;28;20188;-86
2022/06/26 02:58:28;;;;;;;9.18;7.13;;;20.50;99.90;;;17.74;100.00;100221.31;5007246;28;20496;-86
2022/06/26 03:00:57;;;;;;;11.48;7.72;;;20.50;99.90;;;17.74;100.00;100218.56;5024424;28;20091;-87
2022/06/26 03:03:26;;;;;;;8.73;6.38;;;20.50;99.90;;;17.75;100.00;100217.50;5005194;28;20073;-86
2022/06/26 03:05:54;;;;;;;11.10;5.88;;;20.50;99.90;;;17.71;100.00;100203.38;5008235;28;20076;-86
2022/06/26 03:08:25;;;;;;;10.80;6.35;;;20.50;99.90;;;17.68;100.00;100212.13;5007568;28;20065;-86
2022/06/26 03:10:52;;;;;;;8.90;5.95;;;20.40;99.90;;;17.64;100.00;100221.09;5023958;28;20510;-86
2022/06/26 03:13:20;;;;;;;9.55;5.95;;;20.40;99.90;;;17.59;100.00;100224.53;5008395;28;20049;-85
2022/06/26 03:15:47;;;;;;;8.25;5.80;;;20.40;99.90;;;17.56;100.00;100236.88;5009405;28;20534;-86
2022/06/26 03:18:17;;;;;;;12.30;5.60;;;20.40;99.90;;;17.57;100.00;100222.06;5006069;28;20061;-85
2022/06/26 03:20:46;;;;;;;8.43;4.95;;;20.40;99.90;;;17.57;100.00;100222.06;5011516;28;20056;-87
2022/06/26 03:23:13;;;;;;;10.27;6.53;;;20.40;99.90;;;17.55;100.00;100234.38;5008925;28;20144;-86
2022/06/26 03:25:41;;;;;;;8.27;5.63;;;20.40;99.90;;;17.52;100.00;100252.19;5009265;28;20455;-86
2022/06/26 03:28:08;;;;;;;8.52;6.25;;;20.40;99.90;;;17.47;100.00;100253.97;5007693;28;20141;-86
2022/06/26 03:30:44;;;;;;;10.05;6.35;;;20.30;99.90;;;17.47;100.00;100260.31;5007846;28;20115;-86
2022/06/26 03:33:12;;;;;;;9.82;6.70;;;20.30;99.90;;;17.45;100.00;100259.72;5008443;28;20408;-86
2022/06/26 03:35:39;;;;;;;10.90;7.32;;;20.30;99.90;;;17.44;100.00;100249.78;5024148;28;20104;-86
2022/06/26 03:38:10;;;;;;;11.35;8.25;;;20.30;99.90;;;17.44;100.00;100260.81;5004758;28;20116;-85
2022/06/26 03:40:37;;;;;;;14.00;9.23;;;20.30;99.90;;;17.46;100.00;100280.66;5005166;28;20081;-85
2022/06/26 03:43:09;;;;;;;13.55;9.38;;;20.30;99.90;;;17.51;100.00;100283.53;5004722;28;20508;-86
2022/06/26 03:45:46;;;;;;;11.57;9.15;;;20.20;99.90;;;17.58;100.00;100287.00;5006790;28;20068;-86
2022/06/26 03:48:14;;;;;;;12.18;9.82;;;20.30;99.90;;;17.65;100.00;100294.31;5024299;28;20519;-85
2022/06/26 03:50:41;;;;;;;11.70;9.90;;;20.30;99.90;;;17.69;100.00;100301.03;5024133;28;20053;-86
2022/06/26 03:53:10;;;;;;;14.25;9.95;;;20.30;99.90;;;17.79;100.00;100304.03;5007515;28;20152;-85
2022/06/26 03:55:37;;;;;;;13.02;9.43;;;20.30;99.90;;;17.83;100.00;100274.13;5023821;28;20056;-86
2022/06/26 03:58:05;;;;;;;13.13;9.27;;;20.30;99.90;;;17.89;100.00;100279.53;5023710;28;20045;-86
2022/06/26 04:00:34;;;;;;;11.35;9.73;;;20.40;99.90;;;17.85;100.00;100285.75;5024320;28;20049;-85
2022/06/26 04:03:04;;;;;;;13.95;10.00;;;20.40;99.90;;;17.84;100.00;100276.69;5007602;28;20060;-85
2022/06/26 04:05:32;;;;;;;13.55;9.20;;;20.40;99.90;;;17.84;100.00;100271.16;5006698;28;20142;-86
2022/06/26 04:08:00;;;;;;;16.33;9.15;;;20.40;99.90;;;17.87;100.00;100281.69;5008775;28;20131;-86
2022/06/26 04:10:36;;;;;;;12.40;9.23;;;20.40;99.90;;;17.90;100.00;100285.91;5007039;28;20081;-86
2022/06/26 04:13:09;;;;;;;14.50;9.63;;;20.40;99.90;;;18.00;100.00;100290.81;5023996;28;20073;-86
2022/06/26 04:15:41;;;;;;;12.85;8.85;;;20.40;99.90;;;18.08;100.00;100299.53;5007668;28;20073;-86
2022/06/26 04:18:09;;;;;;;13.10;8.82;;;20.40;99.90;;;18.15;100.00;100293.91;5023678;28;20805;-86
2022/06/26 04:20:37;;;;;;;14.30;9.18;;;20.40;99.90;;;18.14;100.00;100298.59;5006962;28;20546;-86
2022/06/26 04:23:08;;;;;;;18.52;9.85;;;20.40;99.90;;;18.22;100.00;100300.16;5026569;28;20069;-86
2022/06/26 04:25:39;;;;;;;;;;;20.40;99.90;;;18.34;100.00;100309.22;5011771;28;20046;-86
2022/06/26 04:28:08;;;;;;;12.85;8.20;;;20.50;99.90;;;18.46;100.00;100311.13;5012281;28;19929;-85
2022/06/26 04:30:38;;;;;;;12.32;8.95;;;20.50;99.90;;;18.57;100.00;100307.50;5027301;28;20420;-86
2022/06/26 04:33:06;;;;;;;12.95;9.18;;;20.60;99.90;;;18.69;100.00;100308.31;5010456;28;20459;-85
2022/06/26 04:35:35;;;;;;;12.63;8.98;;;20.60;99.90;;;18.82;100.00;100309.16;5027265;28;20065;-85
2022/06/26 04:38:02;;;;;;;12.32;8.45;;;20.70;99.90;;;18.94;100.00;100299.78;5027609;28;20856;-86
2022/06/26 04:40:30;;;;;;;12.82;8.88;;;20.80;99.90;;;19.09;100.00;100299.22;5026807;28;20038;-86
2022/06/26 04:42:59;;;;;;;12.45;9.15;;;20.80;99.90;;;19.13;100.00;100294.91;5027487;28;20054;-86
2022/06/26 04:45:26;;;;;;;14.20;8.32;;;20.80;99.90;;;19.20;100.00;100283.72;5026312;28;20034;-86
2022/06/26 04:47:56;;;;;;;11.52;8.85;;;20.90;99.90;;;19.29;100.00;100289.69;5010979;28;20088;-87
2022/06/26 04:50:24;;;;;;;13.20;8.52;;;21.00;99.90;;;19.40;100.00;100302.56;5014828;28;20053;-86
2022/06/26 04:52:53;;;;;;;12.65;8.57;;;21.00;99.90;;;19.52;100.00;100292.28;5027266;28;20113;-86
2022/06/26 04:55:22;;;;;;;11.40;8.85;;;21.10;99.90;;;19.61;100.00;100295.50;5010472;28;20591;-86
2022/06/26 04:57:51;;;;;;;15.00;9.32;;;21.10;99.90;;;19.66;100.00;100314.06;5009963;28;20050;-86
2022/06/26 05:00:19;;;;;;;11.57;7.93;;;21.10;99.90;;;19.51;100.00;100323.75;5019804;28;20054;-86
2022/06/26 05:03:13;;;;;;;12.35;7.88;;;21.20;99.90;;;19.30;100.00;100321.69;4992062;28;20054;-86
2022/06/26 05:05:47;;;;;;;12.80;9.15;;;21.20;99.90;;;19.08;100.00;100318.78;5023302;28;20050;-86
2022/06/26 05:08:41;;;;;;;13.88;8.73;;;21.10;99.90;;;18.93;100.00;100322.09;5010316;28;20054;-86
2022/06/26 05:11:08;;;;;;;13.88;8.90;;;21.10;99.90;;;18.85;100.00;100327.97;5026165;28;20096;-86
2022/06/26 05:13:39;;;;;;;10.75;8.60;;;21.10;99.90;;;18.74;100.00;100322.22;5010518;28;20057;-86
2022/06/26 05:16:33;;;;;;;12.55;7.80;;;21.10;99.90;;;18.65;100.00;100331.94;4991198;28;20843;-86
2022/06/26 05:19:01;;;;;;;12.85;7.68;;;21.00;99.90;;;18.60;100.00;100337.38;4990665;28;20050;-86
2022/06/26 05:21:31;;;;;;;13.27;8.02;;;21.00;99.90;;;18.58;100.00;100336.75;5024546;28;20049;-87
2022/06/26 05:23:58;;;;;;;10.93;7.20;;;21.00;99.90;;;18.59;100.00;100338.44;5010226;28;20092;-86
2022/06/26 05:26:27;;;;;;;9.70;7.07;;;20.90;99.90;;;18.60;100.00;100342.88;5009686;28;20092;-86
2022/06/26 05:28:56;;;;;;;12.30;6.60;;;20.90;99.90;;;18.55;100.00;100340.81;5009722;28;20049;-86
2022/06/26 05:31:23;;;;;;;10.55;6.50;;;20.80;99.90;;;18.54;100.00;100347.44;5009828;28;20041;-86
2022/06/26 05:33:52;;;;;;;8.65;6.05;;;20.90;99.90;;;18.51;100.00;100347.06;5004481;28;20135;-86
2022/06/26 05:36:21;;;;;;;9.52;5.93;;;20.80;99.90;;;18.46;100.00;100349.72;5016561;28;20093;-88
2022/06/26 05:38:51;;;;;;;11.43;6.00;;;20.90;99.90;;;18.45;100.00;100353.53;5026221;28;20058;-85
2022/06/26 05:41:18;;;;;;;11.75;7.28;;;20.80;99.90;;;18.50;100.00;100356.41;5009602;28;20060;-86
2022/06/26 05:43:46;;;;;;;11.15;7.00;;;20.80;99.90;;;18.52;100.00;100359.75;5009659;28;20046;-86
2022/06/26 05:46:14;;;;;;;11.38;6.95;;;20.80;99.90;;;18.54;100.00;100350.19;5025065;28;20127;-85
2022/06/26 05:48:55;;;;;;;11.65;7.90;;;20.80;99.90;;;18.58;100.00;100363.47;5010767;28;20124;-86
2022/06/26 05:51:31;;;;;;;9.88;6.90;;;20.80;99.90;;;18.63;100.00;100360.84;5025938;28;20053;-86
2022/06/26 05:54:24;;;;;;;16.83;7.85;;;20.80;99.90;;;18.66;100.00;100366.72;5008767;28;20038;-86
2022/06/26 05:57:09;;;;;;;13.05;7.25;;;20.80;99.90;;;18.71;100.00;100364.03;4997410;28;20480;-86
2022/06/26 05:59:48;;;;;;;15.25;7.68;;;20.80;99.90;;;18.78;100.00;100368.59;5009163;28;20660;-86
2022/06/26 06:02:34;;;;;;;12.93;8.95;;;20.90;99.90;;;18.79;100.00;100375.78;5005037;28;20747;-86
2022/06/26 06:05:03;;;;;;;15.70;9.90;;;20.80;99.90;;;18.85;100.00;100392.25;5025279;28;20128;-86
2022/06/26 06:07:30;;;;;;;15.73;10.30;;;20.90;99.90;;;19.06;100.00;100396.28;5024788;28;20046;-85
2022/06/26 06:09:57;;;;;;;14.38;10.27;;;20.80;99.90;;;19.47;100.00;100404.53;5006341;28;20041;-86
2022/06/26 06:12:26;;;;;;;16.50;9.60;;;20.90;99.90;;;19.53;100.00;100398.00;5011820;28;20133;-86
2022/06/26 06:14:53;;;;;;;16.40;8.30;;;20.90;99.90;;;19.61;100.00;100405.06;5008831;28;20056;-84
2022/06/26 06:17:40;;;;;;;12.05;6.53;;;21.00;99.90;;;19.56;100.00;100408.56;5022730;28;20582;-83
2022/06/26 06:20:13;;;;;;;10.93;7.70;;;21.10;99.90;;;19.61;100.00;100402.28;5022083;28;20138;-84
2022/06/26 06:22:49;;;;;;;10.02;6.93;;;21.10;99.90;;;19.43;100.00;100404.19;5018418;28;20058;-87
2022/06/26 06:25:16;;;;;;;12.48;6.72;;;21.10;99.90;;;19.21;100.00;100411.44;5024705;28;20038;-87
2022/06/26 06:27:44;;;;;;;12.43;7.45;;;21.10;99.90;;;19.10;100.00;100416.75;5006138;28;20115;-83
2022/06/26 06:30:17;;;;;;;10.30;5.80;;;21.10;99.90;;;19.05;100.00;100413.88;5024696;28;20049;-85
2022/06/26 06:32:45;;;;;;;10.48;5.57;;;21.10;99.90;;;18.99;100.00;100430.59;5010167;28;20121;-84
2022/06/26 06:35:26;;;;;;;9.77;4.97;;;21.10;99.90;;;18.95;100.00;100446.78;5009054;28;20116;-85
2022/06/26 06:37:54;;;;;;;9.45;4.47;;;21.10;99.90;;;19.31;100.00;100442.03;5007804;28;20049;-84
2022/06/26 06:40:23;;;;;;;6.30;3.53;;;21.10;99.90;;;20.09;95.99;100447.97;5010033;28;20061;-85
2022/06/26 06:42:54;;;;;;;6.18;3.70;;;21.10;99.90;;;20.14;96.19;100458.25;5024261;28;20049;-86
2022/06/26 06:45:26;;;;;;;6.05;2.80;;;21.10;99.90;;;20.03;94.28;100462.75;5006614;28;20044;-87
2022/06/26 06:48:11;;;;;;;7.45;3.20;;;21.10;99.90;;;19.87;97.02;100465.22;5047235;28;20064;-82
2022/06/26 06:50:45;;;;;;;7.55;3.13;;;21.20;99.90;;;19.76;95.54;100473.56;5048846;28;20061;-81
2022/06/26 06:53:13;;;;;;;9.23;3.20;;;21.20;99.90;;;19.83;97.62;100466.81;5048345;28;20549;-81
2022/06/26 06:55:41;;;;;;;5.97;2.72;;;21.20;99.90;;;20.02;95.60;100474.91;5035798;28;20052;-81
2022/06/26 06:58:09;;;;;;;5.53;3.20;;;21.20;99.90;;;20.24;94.31;100475.03;5044545;28;20091;-81
2022/06/26 07:00:42;;;;;;;5.78;3.10;;;21.30;99.90;;;20.38;94.17;100492.94;5036642;28;20107;-81
2022/06/26 07:03:15;;;;;;;8.10;3.85;;;21.30;99.90;;;20.49;91.41;100488.44;5046637;28;20048;-80
2022/06/26 07:05:53;;;;;;;8.07;3.33;;;21.40;99.90;;;20.41;90.62;100491.59;5040528;28;20033;-81
2022/06/26 07:08:21;;;;;;;9.10;3.58;;;21.40;99.90;;;20.63;91.19;100495.31;5044325;28;20052;-81
2022/06/26 07:10:48;;;;;;;8.95;4.25;;;21.50;99.90;;;20.76;89.23;100502.44;5055868;28;20047;-81
2022/06/26 07:13:22;;;;;;;7.18;4.47;;;21.60;99.90;;;20.87;88.07;100500.69;5034802;28;20041;-81
2022/06/26 07:15:49;;;;;;;9.20;4.03;;;21.70;99.90;;;21.04;86.66;100507.03;5049137;28;20445;-80
2022/06/26 07:18:18;;;;;;;6.00;2.90;;;21.70;99.90;;;21.09;85.97;100504.34;5048196;28;20051;-81
2022/06/26 07:20:46;;;;;;;5.25;2.80;;;21.80;99.90;;;20.90;85.50;100505.69;5047266;28;20148;-80
2022/06/26 07:23:20;;;;;;;10.18;3.30;;;21.80;99.90;;;21.15;87.70;100496.94;5046205;28;20049;-82
2022/06/26 07:25:57;;;;;;;6.20;3.03;;;21.90;99.90;;;21.32;85.73;100499.63;5046931;28;20165;-82
2022/06/26 07:28:32;;;;;;;6.03;2.38;;;22.00;99.90;;;21.27;84.65;100489.34;5046707;28;20041;-79
2022/06/26 07:31:09;;;;;;;5.68;2.13;;;22.00;99.90;;;21.26;83.77;100500.66;5047449;28;20045;-78
2022/06/26 07:36:30;;;;;;;5.15;2.17;;;22.10;99.90;;;21.59;84.70;100501.66;5041547;28;20049;-78
2022/06/26 07:39:01;;;;;;;6.65;2.60;;;22.10;99.90;;;21.74;84.26;100503.78;5058293;28;20489;-78
2022/06/26 07:41:31;;;;;;;7.95;2.53;;;22.20;99.90;;;21.45;82.90;100506.75;5051856;28;20042;-78
2022/06/26 07:44:01;;;;;;;6.82;2.10;;;22.30;99.90;;;21.21;82.49;100520.81;5043696;28;20851;-78
2022/06/26 07:46:32;;;;;;;6.05;2.47;;;22.10;98.60;;;20.86;84.67;100519.19;5045648;28;20493;-79
2022/06/26 07:49:00;;;;;;;7.55;2.88;;;22.10;99.10;;;20.83;84.19;100516.13;5048014;28;20072;-80
2022/06/26 07:51:27;;;;;;;7.07;2.75;;;22.20;98.70;;;21.06;84.72;100510.38;5045660;28;20095;-79
2022/06/26 07:53:54;;;;;;;8.18;3.00;;;22.10;99.40;;;21.14;84.26;100506.31;5050170;28;20098;-79
2022/06/26 07:56:29;;;;;;;7.10;3.00;;;22.10;99.20;;;21.15;83.35;100504.38;5045654;28;20052;-79
2022/06/26 07:58:57;;;;;;;8.13;3.30;;;22.20;98.70;;;21.19;81.91;100519.38;5052316;28;20625;-79
2022/06/26 08:01:25;;;;;;;6.35;3.00;;;22.20;97.70;;;21.27;82.34;100521.75;5051560;28;20116;-79
2022/06/26 08:03:52;;;;;;;5.55;3.20;;;22.20;98.30;;;21.35;82.94;100531.53;5055100;28;20041;-79
2022/06/26 08:06:20;;;;;;;5.72;3.42;;;22.30;98.60;;;21.37;83.23;100532.09;5051395;28;20064;-79
2022/06/26 08:08:47;;;;;;;7.13;3.38;;;22.20;99.00;;;21.34;81.81;100538.97;5046252;28;20048;-79
2022/06/26 08:11:15;;;;;;;6.32;3.30;;;22.30;98.30;;;21.21;83.78;100536.56;5047771;28;20733;-79
2022/06/26 08:13:44;;;;;;;6.57;3.30;;;22.20;98.50;;;20.90;84.37;100538.88;5052383;28;20132;-79
2022/06/26 08:16:11;;;;;;;5.38;2.97;;;22.20;98.30;;;20.75;85.35;100542.25;5051335;28;20041;-79
2022/06/26 08:18:38;;;;;;;6.55;3.42;;;22.20;99.00;;;20.69;85.52;100540.50;5045370;28;20518;-79
2022/06/26 08:23:47;;;;;;;13.23;3.53;;;22.20;99.90;;;21.11;82.97;100537.25;5046691;28;20057;-79
2022/06/26 08:26:14;;;;;;;6.25;3.80;;;22.20;98.80;;;21.08;81.93;100546.94;5051067;28;20048;-79
2022/06/26 08:28:43;;;;;;;6.55;3.80;;;22.20;97.80;;;20.95;81.26;100540.91;5046969;28;20355;-79
2022/06/26 08:31:09;;;;;;;6.82;3.70;;;22.20;97.10;;;;;;5052013;28;20052;-79
2022/06/26 08:33:37;;;;;;;8.75;3.63;;;22.10;97.10;;;20.69;83.93;100544.13;5052198;28;20734;-79
2022/06/26 08:36:05;;;;;;;8.20;3.53;;;22.20;98.00;;;20.63;84.95;100542.34;5052191;28;20044;-79
2022/06/26 08:38:32;;;;;;;5.97;3.30;;;22.10;98.40;;;20.75;83.13;100546.94;5050626;28;20049;-79
2022/06/26 08:41:00;;;;;;;5.97;2.70;;;22.00;97.90;;;21.26;87.91;100547.72;5051583;28;20139;-79
2022/06/26 08:43:29;;;;;;;6.22;2.47;;;22.10;99.90;;;21.29;81.89;100541.69;5051946;28;20510;-79
2022/06/26 08:45:58;;;;;;;4.47;2.10;;;22.20;98.60;;;21.24;80.41;100549.91;5051547;28;20048;-79
2022/06/26 08:48:27;;;;;;;6.30;2.20;;;22.20;98.10;;;21.13;81.21;100551.69;5050667;28;20041;-79
2022/06/26 08:50:55;;;;;;;4.95;2.05;;;22.30;96.90;;;21.05;80.91;100561.25;5044565;28;20041;-79
2022/06/26 08:53:22;;;;;;;4.50;1.80;;;22.20;96.70;;;21.12;82.27;100557.50;5043844;28;20119;-79
2022/06/26 08:55:50;;;;;;;4.18;1.70;;;22.10;97.40;;;21.31;83.07;100555.28;5050327;28;20067;-79
2022/06/26 08:58:17;;;;;;;5.28;1.75;;;22.10;98.90;;;21.39;80.84;100552.06;5043377;28;20067;-79
2022/06/26 09:00:46;;;;;;;4.30;1.60;;;22.20;97.40;;;21.34;81.71;100555.59;5050477;28;20418;-79
2022/06/26 09:03:16;;;;;;;7.70;1.98;;;22.30;98.40;;;21.22;80.80;100546.56;5051338;28;20120;-79
2022/06/26 09:05:43;;;;;;;3.75;1.70;;;22.20;96.80;;;21.05;81.80;100552.13;5048407;28;20041;-79
2022/06/26 09:08:19;;;;;;;6.65;1.88;;;22.30;97.80;;;20.97;83.06;100556.16;5050283;28;20052;-79
2022/06/26 09:10:48;;;;;;;4.20;1.83;;;22.20;98.00;;;20.96;82.78;100565.56;5051461;28;20055;-79
2022/06/26 09:13:15;;;;;;;5.90;2.30;;;22.30;98.10;;;21.09;82.06;100570.75;5051293;28;20415;-79
2022/06/26 09:15:44;;;;;;;3.72;2.00;;;22.30;97.60;;;21.27;82.08;100566.03;5048778;28;20045;-79
2022/06/26 09:18:15;;;;;;;5.25;1.77;;;22.30;97.70;;;21.48;82.01;100562.47;5050932;28;20091;-79
2022/06/26 09:20:54;;;;;;;5.47;1.95;;;22.40;98.30;;;21.68;80.85;100561.06;5051128;28;20067;-79
2022/06/26 09:23:22;;;;;;;3.53;1.52;;;22.40;97.50;;;21.79;80.61;100559.25;5042808;28;20055;-78
2022/06/26 09:25:49;;;;;;;5.20;1.75;;;22.50;98.00;;;21.95;80.21;100561.13;5048870;28;20476;-79
2022/06/26 09:28:29;;;;;;;4.25;1.80;;;22.50;97.90;;;21.97;78.62;100564.47;5043178;28;20037;-79
2022/06/26 09:30:58;;;;;;;5.63;2.15;;;22.60;96.50;;;21.85;77.34;100556.28;5051003;28;20056;-79
2022/06/26 09:33:29;;;;;;;4.57;1.70;;;22.60;95.60;;;21.74;77.00;100554.50;5051057;28;20039;-79
2022/06/26 09:35:58;;;;;;;5.95;1.80;;;22.60;95.60;;;21.72;77.34;100553.91;5050008;28;20078;-79
2022/06/26 09:38:28;;;;;;;4.55;1.52;;;22.60;95.50;;;21.76;80.29;100541.25;5050636;28;20044;-79
2022/06/26 09:40:58;;;;;;;4.00;2.03;;;22.60;97.30;;;21.72;78.07;100551.13;5050731;28;20045;-79
2022/06/26 09:43:33;;;;;;;3.67;1.60;;;22.60;96.50;;;21.82;79.93;100550.44;5050915;28;20049;-79
2022/06/26 09:46:03;;;;;;;3.63;1.50;;;22.60;97.00;;;21.97;80.39;100547.84;5044855;28;20068;-79
2022/06/26 09:48:41;;;;;;;4.85;1.80;;;22.60;98.00;;;22.11;79.97;100548.28;5048001;28;20036;-79
2022/06/26 09:51:10;;;;;;;4.53;1.92;;;22.70;97.90;;;22.19;78.51;100556.13;5048907;28;20056;-78
2022/06/26 09:53:41;;;;;;;7.43;4.07;;;22.70;97.60;;;22.20;74.66;100557.81;5050531;28;20048;-79
2022/06/26 09:56:09;;;;;;;;;;;22.70;94.40;;;22.27;77.47;100559.56;5047930;28;20047;-79
2022/06/26 09:58:36;;;;;;;4.93;1.67;;;22.70;95.60;;;22.23;77.79;100560.03;5050184;28;20015;-79
2022/06/26 10:06:40;;;;;;;4.78;1.70;;;22.80;96.00;;;22.07;77.20;100558.22;5049298;28;20045;-79
2022/06/26 10:09:10;;;;;;;4.97;2.17;;;22.70;96.20;;;22.07;78.70;100563.75;5049971;28;20490;-79
2022/06/26 10:11:42;;;;;;;4.72;1.98;;;22.70;97.00;;;22.00;77.74;100569.50;5048971;28;20414;-79
2022/06/26 10:14:17;;;;;;;6.70;2.10;;;22.80;96.20;;;22.12;77.72;100574.88;5049080;28;20125;-79
2022/06/26 10:17:22;;;;;;;7.07;2.10;;;22.80;96.80;;;22.18;77.22;100570.22;5043574;28;20079;-79
2022/06/26 10:19:57;;;;;;;6.43;2.65;;;22.80;96.60;;;22.21;78.04;100565.00;5047058;28;20056;-79
2022/06/26 10:22:24;;;;;;;4.18;1.70;;;22.80;96.80;;;22.21;76.35;100559.47;5048472;28;20457;-79
2022/06/26 10:25:01;;;;;;;4.95;2.00;;;22.80;95.80;;;22.27;75.20;100557.59;5049069;28;20057;-79
2022/06/26 10:27:32;;;;;;;6.57;1.83;;;22.80;94.90;;;22.18;73.66;100567.47;5048448;28;20037;-79
2022/06/26 10:30:12;;;;;;;3.83;1.90;;;22.80;94.10;;;22.10;73.39;100567.94;5048266;28;20074;-79
2022/06/26 10:33:20;;;;;;;4.95;1.77;;;22.80;93.50;;;22.05;75.34;100577.88;5048479;28;20754;-79
2022/06/26 10:36:02;;;;;;;4.25;1.60;;;22.80;93.30;;;21.98;77.04;100581.94;5048158;28;20041;-79